Time,TemperatureF,DewpointF,PressureIn,WindDirection,WindDirectionDegrees,WindSpeedMPH,WindSpeedGustMPH,Humidity,HourlyPrecipIn,Conditions,Clouds,dailyrainin,SoftwareType,DateUTC
2013-10-18 09:45:00,48.7,47.1,27.90,North,0,0.0,0.0,94,0.00,,---,0.00,VWS V14.01,2013-10-18 13:45:00,
2013-10-18 09:46:00,48.7,47.1,27.90,North,0,0.0,0.0,94,0.00,,---,0.00,VWS V14.01,2013-10-18 13:46:00,
2013-10-18 09:47:00,48.7,47.1,27.90,North,0,0.0,0.0,94,0.00,,---,0.00,VWS V14.01,2013-10-18 13:47:00,
2013-10-18 09:52:00,48.7,46.8,27.90,North,0,0.0,0.0,93,0.00,,---,0.00,VWS V14.01,2013-10-18 13:52:00,
2013-10-18 09:57:00,49.1,47.5,27.90,North,0,0.0,0.0,94,0.00,,---,0.00,VWS V14.01,2013-10-18 13:57:00,
2013-10-18 10:02:00,49.5,47.5,27.90,North,0,0.0,0.0,93,0.00,,---,0.00,VWS V14.01,2013-10-18 14:02:00,
2013-10-18 10:07:00,49.8,47.9,27.93,North,0,0.0,0.0,93,0.00,,---,0.00,VWS V14.01,2013-10-18 14:07:00,
2013-10-18 10:12:00,50.2,47.7,27.93,North,0,0.0,0.0,91,0.00,,---,0.00,VWS V14.01,2013-10-18 14:12:00,
2013-10-18 10:17:00,50.5,47.4,27.93,North,0,0.0,0.0,89,0.00,,---,0.00,VWS V14.01,2013-10-18 14:17:00,
2013-10-18 10:22:00,50.9,47.5,27.93,North,0,0.0,0.0,88,0.00,,---,0.00,VWS V14.01,2013-10-18 14:22:00,
2013-10-18 10:27:00,51.1,47.0,27.93,North,0,0.0,0.0,86,0.00,,---,0.00,VWS V14.01,2013-10-18 14:27:00,
2013-10-18 10:32:00,51.3,46.6,27.93,North,0,0.0,0.0,84,0.00,,---,0.00,VWS V14.01,2013-10-18 14:32:00,
2013-10-18 10:37:00,51.6,47.3,27.93,North,0,0.0,0.0,85,0.00,,---,0.00,VWS V14.01,2013-10-18 14:37:00,
2013-10-18 10:42:00,52.2,47.8,27.93,North,0,0.0,0.0,85,0.00,,---,0.00,VWS V14.01,2013-10-18 14:42:00,
2013-10-18 10:47:00,52.5,47.5,27.93,North,0,0.0,0.0,83,0.00,,---,0.00,VWS V14.01,2013-10-18 14:47:00,
2013-10-18 10:52:00,52.9,47.5,27.93,North,0,0.0,0.0,82,0.00,,---,0.00,VWS V14.01,2013-10-18 14:52:00,
2013-10-18 10:57:00,53.2,47.9,27.93,North,0,0.0,0.0,82,0.00,,---,0.00,VWS V14.01,2013-10-18 14:57:00,
2013-10-18 11:03:00,53.2,47.2,27.93,North,0,0.0,0.0,80,0.00,,---,0.00,VWS V14.01,2013-10-18 15:03:00,
2013-10-18 11:08:00,53.1,47.1,27.93,North,0,0.0,0.0,80,0.00,,---,0.00,VWS V14.01,2013-10-18 15:08:00,
2013-10-18 11:13:00,53.2,46.9,27.93,North,0,0.0,0.0,79,0.00,,---,0.00,VWS V14.01,2013-10-18 15:13:00,
2013-10-18 11:18:00,53.4,46.4,27.93,North,0,0.0,0.0,77,0.00,,---,0.00,VWS V14.01,2013-10-18 15:18:00,
2013-10-18 11:23:00,53.6,45.2,27.90,North,0,0.0,0.0,73,0.00,,---,0.00,VWS V14.01,2013-10-18 15:23:00,
2013-10-18 11:28:00,54.0,45.5,27.90,North,0,0.0,0.0,73,0.00,,---,0.00,VWS V14.01,2013-10-18 15:28:00,
2013-10-18 11:33:00,54.3,45.1,27.90,North,0,0.0,0.0,71,0.00,,---,0.00,VWS V14.01,2013-10-18 15:33:00,
2013-10-18 11:38:00,54.5,45.7,27.90,North,0,0.0,0.0,72,0.00,,---,0.00,VWS V14.01,2013-10-18 15:38:00,
2013-10-18 11:43:00,54.5,46.0,27.90,North,0,0.0,0.0,73,0.00,,---,0.00,VWS V14.01,2013-10-18 15:43:00,
2013-10-18 11:48:00,54.9,46.0,27.90,North,0,0.0,0.0,72,0.00,,---,0.00,VWS V14.01,2013-10-18 15:48:00,
2013-10-18 11:53:00,55.4,46.5,27.90,North,0,0.0,0.0,72,0.00,,---,0.00,VWS V14.01,2013-10-18 15:53:00,
2013-10-18 11:58:00,55.8,46.5,27.90,North,0,0.0,0.0,71,0.00,,---,0.00,VWS V14.01,2013-10-18 15:58:00,
2013-10-18 12:03:00,55.9,46.3,27.90,North,0,0.0,0.0,70,0.00,,---,0.00,VWS V14.01,2013-10-18 16:03:00,
2013-10-18 12:08:00,55.8,45.0,27.90,North,0,0.0,0.0,67,0.00,,---,0.00,VWS V14.01,2013-10-18 16:08:00,
2013-10-18 12:13:00,55.9,45.5,27.90,North,0,0.0,0.0,68,0.00,,---,0.00,VWS V14.01,2013-10-18 16:13:00,
2013-10-18 12:18:00,55.9,45.2,27.90,North,0,0.0,0.0,67,0.00,,---,0.00,VWS V14.01,2013-10-18 16:18:00,
2013-10-18 12:23:00,56.5,46.8,27.90,North,0,0.0,0.0,70,0.00,,---,0.00,VWS V14.01,2013-10-18 16:23:00,
2013-10-18 12:28:00,56.7,46.6,27.90,North,0,0.0,0.0,69,0.00,,---,0.00,VWS V14.01,2013-10-18 16:28:00,
2013-10-18 12:33:00,56.7,46.2,27.90,North,0,0.0,0.0,68,0.00,,---,0.00,VWS V14.01,2013-10-18 16:33:00,
2013-10-18 12:38:00,57.0,47.0,27.90,North,0,0.0,0.0,69,0.00,,---,0.00,VWS V14.01,2013-10-18 16:38:00,
2013-10-18 12:43:00,57.4,46.9,27.90,North,0,0.0,0.0,68,0.00,,---,0.00,VWS V14.01,2013-10-18 16:43:00,
2013-10-18 12:49:00,57.6,46.3,27.90,North,0,0.0,0.0,66,0.00,,---,0.00,VWS V14.01,2013-10-18 16:49:00,
2013-10-18 12:54:00,57.9,46.6,27.90,North,0,0.0,0.0,66,0.00,,---,0.00,VWS V14.01,2013-10-18 16:54:00,
2013-10-18 12:59:00,57.9,46.2,27.90,North,0,0.0,0.0,65,0.00,,---,0.00,VWS V14.01,2013-10-18 16:59:00,
2013-10-18 13:04:00,58.1,46.0,27.90,North,0,0.0,0.0,64,0.00,,---,0.00,VWS V14.01,2013-10-18 17:04:00,
2013-10-18 13:09:00,58.1,46.4,27.90,North,0,0.0,0.0,65,0.00,,---,0.00,VWS V14.01,2013-10-18 17:09:00,
2013-10-18 13:14:00,58.1,46.4,27.90,North,0,0.0,0.0,65,0.00,,---,0.00,VWS V14.01,2013-10-18 17:14:00,
2013-10-18 13:19:00,58.5,47.2,27.90,North,0,0.0,0.0,66,0.00,,---,0.00,VWS V14.01,2013-10-18 17:19:00,
2013-10-18 13:24:00,58.8,47.9,27.90,North,0,0.0,0.0,67,0.00,,---,0.00,VWS V14.01,2013-10-18 17:24:00,
2013-10-18 13:29:00,59.2,46.2,27.90,North,0,0.0,0.0,62,0.00,,---,0.00,VWS V14.01,2013-10-18 17:29:00,
2013-10-18 13:34:00,59.2,46.6,27.90,North,0,0.0,0.0,63,0.00,,---,0.00,VWS V14.01,2013-10-18 17:34:00,
2013-10-18 13:35:00,59.2,46.6,27.90,North,0,0.0,0.0,63,0.00,,---,0.00,VWS V14.01,2013-10-18 17:35:00,
2013-10-18 13:40:00,59.0,46.0,27.90,North,0,0.0,0.0,62,0.00,,---,0.00,VWS V14.01,2013-10-18 17:40:00,
2013-10-18 13:45:00,59.2,46.2,27.90,North,0,0.0,0.0,62,0.00,,---,0.00,VWS V14.01,2013-10-18 17:45:00,
2013-10-18 13:50:00,59.4,46.3,27.88,North,0,0.0,0.0,62,0.00,,---,0.00,VWS V14.01,2013-10-18 17:50:00,
2013-10-18 13:55:00,59.4,45.5,27.88,North,0,0.0,0.0,60,0.00,,---,0.00,VWS V14.01,2013-10-18 17:55:00,
2013-10-18 14:00:00,59.4,46.3,27.88,North,0,0.0,0.0,62,0.00,,---,0.00,VWS V14.01,2013-10-18 18:00:00,
2013-10-18 14:05:00,59.9,46.9,27.88,North,0,0.0,0.0,62,0.00,,---,0.00,VWS V14.01,2013-10-18 18:05:00,
2013-10-18 14:10:00,60.3,47.2,27.88,North,0,0.0,0.0,62,0.00,,---,0.00,VWS V14.01,2013-10-18 18:10:00,
2013-10-18 14:15:00,60.6,47.5,27.88,North,0,0.0,0.0,62,0.00,,---,0.00,VWS V14.01,2013-10-18 18:15:00,
2013-10-18 14:20:00,60.6,47.5,27.88,North,0,0.0,0.0,62,0.00,,---,0.00,VWS V14.01,2013-10-18 18:20:00,
2013-10-18 14:25:00,60.6,47.1,27.88,North,0,0.0,0.0,61,0.00,,---,0.00,VWS V14.01,2013-10-18 18:25:00,
2013-10-18 14:30:00,61.2,47.2,27.88,North,0,0.0,0.0,60,0.00,,---,0.00,VWS V14.01,2013-10-18 18:30:00,
2013-10-18 14:35:00,61.2,46.3,27.88,North,0,0.0,0.0,58,0.00,,---,0.00,VWS V14.01,2013-10-18 18:35:00,
2013-10-18 14:40:00,61.3,47.3,27.88,North,0,0.0,0.0,60,0.00,,---,0.00,VWS V14.01,2013-10-18 18:40:00,
2013-10-18 14:45:00,61.3,46.9,27.88,North,0,0.0,0.0,59,0.00,,---,0.00,VWS V14.01,2013-10-18 18:45:00,
2013-10-18 14:51:00,61.7,47.2,27.88,North,0,0.0,0.0,59,0.00,,---,0.00,VWS V14.01,2013-10-18 18:51:00,
2013-10-18 14:56:00,61.7,47.7,27.88,North,0,0.0,0.0,60,0.00,,---,0.00,VWS V14.01,2013-10-18 18:56:00,
2013-10-18 15:01:00,61.9,47.4,27.88,North,0,0.0,0.0,59,0.00,,---,0.00,VWS V14.01,2013-10-18 19:01:00,
2013-10-18 15:06:00,61.9,47.4,27.85,North,0,0.0,0.0,59,0.00,,---,0.00,VWS V14.01,2013-10-18 19:06:00,
2013-10-18 15:11:00,62.2,47.8,27.85,North,0,0.0,0.0,59,0.00,,---,0.00,VWS V14.01,2013-10-18 19:11:00,
2013-10-18 15:16:00,62.2,45.4,27.85,North,0,0.0,0.0,54,0.00,,---,0.00,VWS V14.01,2013-10-18 19:16:00,
2013-10-18 15:21:00,62.4,46.1,27.85,North,0,0.0,0.0,55,0.00,,---,0.00,VWS V14.01,2013-10-18 19:21:00,
2013-10-18 15:26:00,62.4,45.1,27.85,North,0,0.0,0.0,53,0.00,,---,0.00,VWS V14.01,2013-10-18 19:26:00,
2013-10-18 15:31:00,62.2,45.9,27.85,North,0,0.0,0.0,55,0.00,,---,0.00,VWS V14.01,2013-10-18 19:31:00,
2013-10-18 15:36:00,62.2,46.4,27.85,North,0,0.0,0.0,56,0.00,,---,0.00,VWS V14.01,2013-10-18 19:36:00,
2013-10-18 15:41:00,62.2,45.9,27.85,North,0,0.0,0.0,55,0.00,,---,0.00,VWS V14.01,2013-10-18 19:41:00,
2013-10-18 15:46:00,62.4,45.6,27.85,North,0,0.0,0.0,54,0.00,,---,0.00,VWS V14.01,2013-10-18 19:46:00,
2013-10-18 15:51:00,62.6,45.7,27.85,North,0,0.0,0.0,54,0.00,,---,0.00,VWS V14.01,2013-10-18 19:51:00,
2013-10-18 15:56:00,62.8,46.4,27.85,North,0,0.0,0.0,55,0.00,,---,0.00,VWS V14.01,2013-10-18 19:56:00,
2013-10-18 16:01:00,62.8,45.9,27.85,North,0,0.0,0.0,54,0.00,,---,0.00,VWS V14.01,2013-10-18 20:01:00,
2013-10-18 16:06:00,62.6,44.8,27.85,North,0,0.0,0.0,52,0.00,,---,0.00,VWS V14.01,2013-10-18 20:06:00,
2013-10-18 16:11:00,62.6,45.2,27.85,North,0,0.0,0.0,53,0.00,,---,0.00,VWS V14.01,2013-10-18 20:11:00,
2013-10-18 16:16:00,62.6,45.2,27.85,North,0,0.0,0.0,53,0.00,,---,0.00,VWS V14.01,2013-10-18 20:16:00,
2013-10-18 16:21:00,62.2,44.9,27.85,North,0,0.0,0.0,53,0.00,,---,0.00,VWS V14.01,2013-10-18 20:21:00,
2013-10-18 16:26:00,62.2,45.4,27.85,North,0,0.0,0.0,54,0.00,,---,0.00,VWS V14.01,2013-10-18 20:26:00,
2013-10-18 16:32:00,62.2,44.9,27.85,North,0,0.0,0.0,53,0.00,,---,0.00,VWS V14.01,2013-10-18 20:32:00,
2013-10-18 16:37:00,61.9,44.1,27.85,North,0,0.0,0.0,52,0.00,,---,0.00,VWS V14.01,2013-10-18 20:37:00,
2013-10-18 16:42:00,61.7,43.9,27.85,North,0,0.0,0.0,52,0.00,,---,0.00,VWS V14.01,2013-10-18 20:42:00,
2013-10-18 16:47:00,61.3,43.6,27.85,North,0,0.0,0.0,52,0.00,,---,0.00,VWS V14.01,2013-10-18 20:47:00,
2013-10-18 16:52:00,61.2,43.4,27.85,North,0,0.0,0.0,52,0.00,,---,0.00,VWS V14.01,2013-10-18 20:52:00,
2013-10-18 16:57:00,61.0,43.2,27.85,North,0,0.0,0.0,52,0.00,,---,0.00,VWS V14.01,2013-10-18 20:57:00,
2013-10-18 17:02:00,60.8,44.1,27.85,North,0,0.0,0.0,54,0.00,,---,0.00,VWS V14.01,2013-10-18 21:02:00,
2013-10-18 17:07:00,60.6,43.9,27.85,North,0,0.0,0.0,54,0.00,,---,0.00,VWS V14.01,2013-10-18 21:07:00,
2013-10-18 17:12:00,60.4,43.7,27.85,North,0,0.0,0.0,54,0.00,,---,0.00,VWS V14.01,2013-10-18 21:12:00,
2013-10-18 17:17:00,60.4,44.2,27.85,North,0,0.0,0.0,55,0.00,,---,0.00,VWS V14.01,2013-10-18 21:17:00,
2013-10-18 17:22:00,60.1,43.9,27.85,North,0,0.0,0.0,55,0.00,,---,0.00,VWS V14.01,2013-10-18 21:22:00,
2013-10-18 17:27:00,59.9,43.7,27.85,North,0,0.0,0.0,55,0.00,,---,0.00,VWS V14.01,2013-10-18 21:27:00,
2013-10-18 17:32:00,59.7,44.0,27.85,North,0,0.0,0.0,56,0.00,,---,0.00,VWS V14.01,2013-10-18 21:32:00,
2013-10-18 17:37:00,59.4,44.6,27.85,North,0,0.0,0.0,58,0.00,,---,0.00,VWS V14.01,2013-10-18 21:37:00,
2013-10-18 17:42:00,59.4,45.0,27.85,North,0,0.0,0.0,59,0.00,,---,0.00,VWS V14.01,2013-10-18 21:42:00,
2013-10-18 17:47:00,59.2,44.9,27.85,North,0,0.0,0.0,59,0.00,,---,0.00,VWS V14.01,2013-10-18 21:47:00,
2013-10-18 17:52:00,59.2,44.9,27.85,North,0,0.0,0.0,59,0.00,,---,0.00,VWS V14.01,2013-10-18 21:52:00,
2013-10-18 17:57:00,59.0,44.7,27.85,North,0,0.0,0.0,59,0.00,,---,0.00,VWS V14.01,2013-10-18 21:57:00,
2013-10-18 18:02:00,58.8,45.0,27.85,North,0,0.0,0.0,60,0.00,,---,0.00,VWS V14.01,2013-10-18 22:02:00,
2013-10-18 18:07:00,58.5,44.6,27.85,North,0,0.0,0.0,60,0.00,,---,0.00,VWS V14.01,2013-10-18 22:07:00,
2013-10-18 18:12:00,58.3,44.5,27.85,North,0,0.0,0.0,60,0.00,,---,0.00,VWS V14.01,2013-10-18 22:12:00,
2013-10-18 18:17:00,58.1,44.7,27.85,North,0,0.0,0.0,61,0.00,,---,0.00,VWS V14.01,2013-10-18 22:17:00,
2013-10-18 18:23:00,57.7,45.2,27.85,North,0,0.0,0.0,63,0.00,,---,0.00,VWS V14.01,2013-10-18 22:23:00,
2013-10-18 18:28:00,57.6,45.5,27.85,North,0,0.0,0.0,64,0.00,,---,0.00,VWS V14.01,2013-10-18 22:28:00,
2013-10-18 18:33:00,57.2,45.6,27.85,North,0,0.0,0.0,65,0.00,,---,0.00,VWS V14.01,2013-10-18 22:33:00,
2013-10-18 18:38:00,56.8,46.0,27.85,North,0,0.0,0.0,67,0.00,,---,0.00,VWS V14.01,2013-10-18 22:38:00,
2013-10-18 18:43:00,56.7,46.2,27.85,North,0,0.0,0.0,68,0.00,,---,0.00,VWS V14.01,2013-10-18 22:43:00,
2013-10-18 18:48:00,56.3,46.3,27.85,North,0,0.0,0.0,69,0.00,,---,0.00,VWS V14.01,2013-10-18 22:48:00,
2013-10-18 18:53:00,55.8,46.5,27.85,North,0,0.0,0.0,71,0.00,,---,0.00,VWS V14.01,2013-10-18 22:53:00,
2013-10-18 18:58:00,55.4,46.5,27.85,North,0,0.0,0.0,72,0.00,,---,0.00,VWS V14.01,2013-10-18 22:58:00,
2013-10-18 19:03:00,55.0,46.5,27.85,North,0,0.0,0.0,73,0.00,,---,0.00,VWS V14.01,2013-10-18 23:03:00,
2013-10-18 19:08:00,54.7,46.2,27.85,North,0,0.0,0.0,73,0.00,,---,0.00,VWS V14.01,2013-10-18 23:08:00,
2013-10-18 19:13:00,54.3,45.9,27.85,North,0,0.0,0.0,73,0.00,,---,0.00,VWS V14.01,2013-10-18 23:13:00,
2013-10-18 19:18:00,54.0,45.5,27.85,North,0,0.0,0.0,73,0.00,,---,0.00,VWS V14.01,2013-10-18 23:18:00,
2013-10-18 19:23:00,53.8,45.7,27.85,North,0,0.0,0.0,74,0.00,,---,0.00,VWS V14.01,2013-10-18 23:23:00,
2013-10-18 19:28:00,53.6,45.5,27.85,North,0,0.0,0.0,74,0.00,,---,0.00,VWS V14.01,2013-10-18 23:28:00,
2013-10-18 19:33:00,53.6,45.5,27.85,North,0,0.0,0.0,74,0.00,,---,0.00,VWS V14.01,2013-10-18 23:33:00,
2013-10-18 19:38:00,53.6,45.5,27.85,North,0,0.0,0.0,74,0.00,,---,0.00,VWS V14.01,2013-10-18 23:38:00,
2013-10-18 19:43:00,53.4,45.7,27.85,North,0,0.0,0.0,75,0.00,,---,0.00,VWS V14.01,2013-10-18 23:43:00,
2013-10-18 19:48:00,53.4,45.7,27.85,North,0,0.0,0.0,75,0.00,,---,0.00,VWS V14.01,2013-10-18 23:48:00,
2013-10-18 19:53:00,53.4,45.7,27.85,North,0,0.0,0.0,75,0.00,,---,0.00,VWS V14.01,2013-10-18 23:53:00,
2013-10-18 19:58:00,53.4,45.7,27.85,North,0,0.0,0.0,75,0.00,,---,0.00,VWS V14.01,2013-10-18 23:58:00,
2013-10-18 20:04:00,53.2,45.5,27.85,North,0,0.0,0.0,75,0.00,,---,0.00,VWS V14.01,2013-10-19 00:04:00,
2013-10-18 20:09:00,53.2,45.5,27.85,North,0,0.0,0.0,75,0.00,,---,0.00,VWS V14.01,2013-10-19 00:09:00,
2013-10-18 20:14:00,53.2,45.5,27.85,North,0,0.0,0.0,75,0.00,,---,0.00,VWS V14.01,2013-10-19 00:14:00,
2013-10-18 20:19:00,53.1,45.4,27.85,North,0,0.0,0.0,75,0.00,,---,0.00,VWS V14.01,2013-10-19 00:19:00,
2013-10-18 20:24:00,53.1,45.4,27.85,North,0,0.0,0.0,75,0.00,,---,0.00,VWS V14.01,2013-10-19 00:24:00,
2013-10-18 20:29:00,53.1,45.4,27.85,North,0,0.0,0.0,75,0.00,,---,0.00,VWS V14.01,2013-10-19 00:29:00,
2013-10-18 20:34:00,52.9,45.5,27.85,North,0,0.0,0.0,76,0.00,,---,0.00,VWS V14.01,2013-10-19 00:34:00,
2013-10-18 20:39:00,52.9,45.5,27.85,North,0,0.0,0.0,76,0.00,,---,0.00,VWS V14.01,2013-10-19 00:39:00,
2013-10-18 20:44:00,52.9,45.5,27.85,North,0,0.0,0.0,76,0.00,,---,0.00,VWS V14.01,2013-10-19 00:44:00,
2013-10-18 20:49:00,52.9,45.5,27.85,North,0,0.0,0.0,76,0.00,,---,0.00,VWS V14.01,2013-10-19 00:49:00,
2013-10-18 20:54:00,52.7,45.7,27.85,North,0,0.0,0.0,77,0.00,,---,0.00,VWS V14.01,2013-10-19 00:54:00,
2013-10-18 20:59:00,52.7,45.7,27.85,North,0,0.0,0.0,77,0.00,,---,0.00,VWS V14.01,2013-10-19 00:59:00,
2013-10-18 21:04:00,52.5,45.5,27.85,North,0,0.0,0.0,77,0.00,,---,0.00,VWS V14.01,2013-10-19 01:04:00,
2013-10-18 21:09:00,52.5,45.9,27.85,North,0,0.0,0.0,78,0.00,,---,0.00,VWS V14.01,2013-10-19 01:09:00,
2013-10-18 21:14:00,52.3,45.7,27.85,North,0,0.0,0.0,78,0.00,,---,0.00,VWS V14.01,2013-10-19 01:14:00,
2013-10-18 21:20:00,52.3,45.7,27.85,North,0,0.0,0.0,78,0.00,,---,0.00,VWS V14.01,2013-10-19 01:20:00,
2013-10-18 21:25:00,52.2,45.8,27.85,North,0,0.0,0.0,79,0.00,,---,0.00,VWS V14.01,2013-10-19 01:25:00,
2013-10-18 21:30:00,52.0,46.0,27.85,North,0,0.0,0.0,80,0.00,,---,0.00,VWS V14.01,2013-10-19 01:30:00,
2013-10-18 21:35:00,52.0,46.0,27.88,North,0,0.0,0.0,80,0.00,,---,0.00,VWS V14.01,2013-10-19 01:35:00,
2013-10-18 21:40:00,52.0,46.0,27.88,North,0,0.0,0.0,80,0.00,,---,0.00,VWS V14.01,2013-10-19 01:40:00,
2013-10-18 21:45:00,51.8,45.8,27.88,North,0,0.0,0.0,80,0.00,,---,0.00,VWS V14.01,2013-10-19 01:45:00,
2013-10-18 21:50:00,51.8,45.8,27.88,North,0,0.0,0.0,80,0.00,,---,0.00,VWS V14.01,2013-10-19 01:50:00,
2013-10-18 21:55:00,51.8,45.8,27.88,North,0,0.0,0.0,80,0.00,,---,0.00,VWS V14.01,2013-10-19 01:55:00,
2013-10-18 22:00:00,51.8,46.2,27.88,North,0,0.0,0.0,81,0.00,,---,0.00,VWS V14.01,2013-10-19 02:00:00,
2013-10-18 22:05:00,51.8,46.2,27.85,North,0,0.0,0.0,81,0.00,,---,0.00,VWS V14.01,2013-10-19 02:05:00,
2013-10-18 22:10:00,51.8,46.2,27.85,North,0,0.0,0.0,81,0.00,,---,0.00,VWS V14.01,2013-10-19 02:10:00,
2013-10-18 22:15:00,51.6,46.0,27.85,North,0,0.0,0.0,81,0.00,,---,0.00,VWS V14.01,2013-10-19 02:15:00,
2013-10-18 22:20:00,51.4,46.1,27.88,North,0,0.0,0.0,82,0.00,,---,0.00,VWS V14.01,2013-10-19 02:20:00,
2013-10-18 22:25:00,51.3,46.0,27.88,North,0,0.0,0.0,82,0.00,,---,0.00,VWS V14.01,2013-10-19 02:25:00,
2013-10-18 22:31:00,51.3,46.0,27.88,North,0,0.0,0.0,82,0.00,,---,0.00,VWS V14.01,2013-10-19 02:31:00,
2013-10-18 22:36:00,51.1,46.1,27.85,North,0,0.0,0.0,83,0.00,,---,0.00,VWS V14.01,2013-10-19 02:36:00,
2013-10-18 22:41:00,50.9,45.9,27.85,North,0,0.0,0.0,83,0.00,,---,0.00,VWS V14.01,2013-10-19 02:41:00,
2013-10-18 22:46:00,50.7,46.1,27.85,North,0,0.0,0.0,84,0.00,,---,0.00,VWS V14.01,2013-10-19 02:46:00,
2013-10-18 22:51:00,50.7,46.1,27.88,North,0,0.0,0.0,84,0.00,,---,0.00,VWS V14.01,2013-10-19 02:51:00,
2013-10-18 22:56:00,50.7,46.1,27.88,North,0,0.0,0.0,84,0.00,,---,0.00,VWS V14.01,2013-10-19 02:56:00,
2013-10-18 23:01:00,50.5,45.9,27.88,North,0,0.0,0.0,84,0.00,,---,0.00,VWS V14.01,2013-10-19 03:01:00,
2013-10-18 23:06:00,50.4,45.7,27.88,North,0,0.0,0.0,84,0.00,,---,0.00,VWS V14.01,2013-10-19 03:06:00,
2013-10-18 23:11:00,50.4,45.7,27.88,North,0,0.0,0.0,84,0.00,,---,0.00,VWS V14.01,2013-10-19 03:11:00,
2013-10-18 23:16:00,50.2,45.5,27.88,North,0,0.0,0.0,84,0.00,,---,0.00,VWS V14.01,2013-10-19 03:16:00,
2013-10-18 23:22:00,50.2,45.8,27.88,North,0,0.0,0.0,85,0.00,,---,0.00,VWS V14.01,2013-10-19 03:22:00,
2013-10-18 23:27:00,50.2,45.8,27.88,North,0,0.0,0.0,85,0.00,,---,0.00,VWS V14.01,2013-10-19 03:27:00,
2013-10-18 23:32:00,50.4,46.0,27.88,North,0,0.0,0.0,85,0.00,,---,0.00,VWS V14.01,2013-10-19 03:32:00,
2013-10-18 23:37:00,50.4,46.0,27.85,North,0,0.0,0.0,85,0.00,,---,0.00,VWS V14.01,2013-10-19 03:37:00,
2013-10-18 23:42:00,50.5,46.2,27.85,North,0,0.0,0.0,85,0.00,,---,0.00,VWS V14.01,2013-10-19 03:42:00,
2013-10-18 23:47:00,50.7,46.4,27.85,North,0,0.0,0.0,85,0.00,,---,0.00,VWS V14.01,2013-10-19 03:47:00,
2013-10-18 23:52:00,50.7,46.1,27.88,North,0,0.0,0.0,84,0.00,,---,0.00,VWS V14.01,2013-10-19 03:52:00,
2013-10-18 23:57:00,50.7,46.1,27.88,North,0,0.0,0.0,84,0.00,,---,0.00,VWS V14.01,2013-10-19 03:57:00,